Time;durP1;ratioP1;P1;durP2;ratioP2;P2;SDS_P1;SDS_P2;PMS_P1;PMS_P2;Temp;Humidity;BMP_temperature;BMP_pressure;BME280_temperature;BME280_humidity;BME280_pressure;Samples;Min_cycle;Max_cycle;Signal;HPM_P1;HPM_P2
2023/06/08 00:02:15;;;;;;;8.50;4.60;;;;;;;-144.73;76.69;84734.38;110657;1273;22120;-67
2023/06/08 00:05:02;;;;;;;7.00;4.30;;;;;;;-144.73;77.09;84745.84;110603;1273;22190;-64
2023/06/08 00:07:49;;;;;;;7.10;4.00;;;;;;;-144.73;77.58;84737.94;110590;1273;22229;-69
2023/06/08 00:10:35;;;;;;;7.40;4.00;;;;;;;-144.73;78.15;84732.80;110629;1273;22116;-61
2023/06/08 00:13:22;;;;;;;5.80;3.80;;;;;;;-144.73;78.48;84762.05;110616;1272;22125;-72
2023/06/08 00:16:08;;;;;;;7.00;3.80;;;;;;;-144.73;78.79;84751.38;110601;1273;22807;-61
2023/06/08 00:18:56;;;;;;;9.30;3.80;;;;;;;-144.73;78.75;84724.89;110622;1273;22122;-72
2023/06/08 00:21:43;;;;;;;6.00;3.70;;;;;;;-144.73;78.69;84749.80;110651;1273;22240;-73
2023/06/08 00:24:29;;;;;;;6.50;4.00;;;;;;;-144.73;78.92;84746.23;110764;1253;22182;-75
2023/06/08 00:27:15;;;;;;;8.20;4.00;;;;;;;-144.73;78.82;84734.38;110619;1273;22109;-68
2023/06/08 00:30:02;;;;;;;7.10;3.90;;;;;;;-144.73;78.85;84737.15;110611;1273;22116;-67
2023/06/08 00:32:48;;;;;;;6.40;3.60;;;;;;;-144.73;78.72;84722.91;110630;1273;22101;-68
2023/06/08 00:35:34;;;;;;;8.70;4.10;;;;;;;-144.73;78.80;84732.80;110628;1273;22103;-74
2023/06/08 00:38:20;;;;;;;7.50;4.00;;;;;;;-144.73;78.86;84738.33;110529;1273;22170;-65
2023/06/08 00:41:06;;;;;;;6.90;4.20;;;;;;;-144.73;78.93;84726.46;110637;1273;22088;-68
2023/06/08 00:43:52;;;;;;;9.00;3.70;;;;;;;-144.73;79.05;84726.88;110629;1273;22144;-62
2023/06/08 00:46:38;;;;;;;7.70;3.90;;;;;;;-144.73;79.60;84721.73;110621;1273;22101;-61
2023/06/08 00:49:25;;;;;;;9.00;3.90;;;;;;;-144.73;80.11;84729.24;110631;1273;22113;-69
2023/06/08 00:52:12;;;;;;;8.00;4.20;;;;;;;-144.73;80.33;84726.08;110605;1270;22759;-68
2023/06/08 00:55:00;;;;;;;6.70;4.10;;;;;;;-144.73;80.75;84735.95;110598;1273;22196;-64
2023/06/08 00:57:50;;;;;;;10.60;4.60;;;;;;;-144.73;80.91;84727.66;110554;1273;22853;-59
2023/06/08 01:00:36;;;;;;;7.70;4.40;;;;;;;-144.73;81.04;84732.00;110552;1273;22098;-69
2023/06/08 01:03:23;;;;;;;5.60;3.60;;;;;;;-144.73;81.27;84738.73;110590;1273;22810;-63
2023/06/08 01:06:12;;;;;;;6.80;3.80;;;;;;;-144.73;81.27;84732.41;110572;1273;22795;-63
2023/06/08 01:09:04;;;;;;;7.50;3.70;;;;;;;-144.73;81.56;84736.75;110586;1273;22115;-63
2023/06/08 01:12:21;;;;;;;8.50;4.50;;;;;;;-144.73;81.93;84723.31;110560;1273;22112;-63
2023/06/08 01:15:30;;;;;;;7.20;4.40;;;;;;;-144.73;82.39;84742.68;111034;1253;22863;-66
2023/06/08 01:18:23;;;;;;;8.30;4.30;;;;;;;-144.73;82.74;84713.02;110552;1273;22113;-64
2023/06/08 01:21:47;;;;;;;9.70;4.50;;;;;;;-144.73;82.92;84735.95;110602;1273;22821;-58
2023/06/08 01:24:36;;;;;;;8.50;4.20;;;;;;;-144.73;82.37;84742.29;110586;1273;22126;-67
2023/06/08 01:27:25;;;;;;;6.70;4.40;;;;;;;-144.73;82.01;84733.98;110589;1264;22171;-62
2023/06/08 01:30:12;;;;;;;9.40;4.30;;;;;;;-144.73;81.48;84746.23;110561;1273;22125;-59
2023/06/08 01:32:58;;;;;;;7.80;4.30;;;;;;;-144.73;80.76;84745.05;110541;1273;22122;-62
2023/06/08 01:35:59;;;;;;;6.70;3.90;;;;;;;-144.73;80.99;84747.02;110698;1273;22129;-58
2023/06/08 01:39:09;;;;;;;6.40;4.10;;;;;;;-144.73;80.92;84746.23;110620;1273;22112;-67
2023/06/08 01:42:00;;;;;;;7.40;4.20;;;;;;;-144.73;80.73;84750.98;110660;1273;22183;-61
2023/06/08 01:45:05;;;;;;;8.20;4.60;;;;;;;-144.73;80.36;84735.16;110598;1273;22099;-68
2023/06/08 01:48:01;;;;;;;9.00;4.50;;;;;;;-144.73;80.22;84757.30;110583;1273;22255;-70
2023/06/08 01:50:48;;;;;;;7.30;4.00;;;;;;;-144.73;80.12;84763.63;110539;1273;22125;-62
2023/06/08 01:53:34;;;;;;;6.10;3.80;;;;;;;-144.73;80.20;84779.44;110563;1273;22104;-69
2023/06/08 01:56:20;;;;;;;6.90;3.90;;;;;;;-144.73;80.26;84771.14;110590;1273;22117;-63
2023/06/08 01:59:07;;;;;;;5.90;3.50;;;;;;;-144.73;80.24;84770.35;110614;1273;22095;-60
2023/06/08 02:01:53;;;;;;;7.10;3.90;;;;;;;-144.73;80.28;84785.77;110528;1273;22869;-59
2023/06/08 02:04:39;;;;;;;5.50;3.30;;;;;;;-144.73;80.27;84796.05;110574;1273;22213;-61
2023/06/08 02:07:26;;;;;;;9.80;4.10;;;;;;;-144.73;80.50;84780.63;110602;1272;22196;-65
2023/06/08 02:10:12;;;;;;;8.30;4.50;;;;;;;-144.73;80.43;84806.33;110601;1273;22099;-64
2023/06/08 02:12:59;;;;;;;6.40;3.70;;;;;;;-144.73;80.60;84803.95;110621;1273;22267;-63
2023/06/08 02:15:45;;;;;;;7.90;3.90;;;;;;;-144.73;80.62;84806.71;110640;1273;22117;-70
2023/06/08 02:18:35;;;;;;;7.00;4.30;;;;;;;-144.73;80.46;84809.09;110487;1273;22996;-60
2023/06/08 02:21:21;;;;;;;7.90;3.10;;;;;;;-144.73;80.49;84800.00;110648;1253;22132;-67
2023/06/08 02:24:07;;;;;;;10.20;4.40;;;;;;;-144.73;80.56;84808.70;110596;1272;22149;-68
2023/06/08 02:26:54;;;;;;;10.30;3.80;;;;;;;-144.73;80.16;84810.67;110612;1272;22826;-64
2023/06/08 02:29:41;;;;;;;6.00;3.90;;;;;;;-144.73;79.81;84794.07;110677;1265;22357;-69
2023/06/08 02:32:27;;;;;;;8.10;4.40;;;;;;;-144.73;79.86;84802.77;110641;1272;22350;-63
2023/06/08 02:35:13;;;;;;;8.00;4.70;;;;;;;-144.73;79.79;84805.13;110680;1266;22148;-63
2023/06/08 02:38:01;;;;;;;7.00;4.10;;;;;;;-144.73;79.38;84798.81;110513;1273;22117;-66
2023/06/08 02:40:47;;;;;;;8.20;3.20;;;;;;;-144.73;78.90;84796.84;110603;1273;22958;-66
2023/06/08 02:43:33;;;;;;;6.40;3.70;;;;;;;-144.73;78.25;84796.45;110592;1273;22794;-58
2023/06/08 02:46:20;;;;;;;7.50;3.90;;;;;;;-144.73;78.31;84784.19;110631;1273;22804;-63
2023/06/08 02:49:06;;;;;;;7.90;4.70;;;;;;;-144.73;77.87;84779.84;110634;1273;22170;-63
2023/06/08 02:51:52;;;;;;;6.40;4.40;;;;;;;-144.73;77.69;84774.70;110622;1272;22172;-62
2023/06/08 02:54:39;;;;;;;8.00;4.00;;;;;;;-144.73;77.11;84766.00;110542;1273;22116;-61
2023/06/08 02:57:25;;;;;;;6.00;3.50;;;;;;;-144.73;76.38;84765.21;110594;1273;22109;-63
2023/06/08 03:00:16;;;;;;;6.20;3.70;;;;;;;-144.73;76.24;84739.91;110542;1273;22186;-61
2023/06/08 03:03:23;;;;;;;5.80;4.00;;;;;;;-144.73;76.14;84752.55;110611;1273;22125;-68
2023/06/08 03:06:12;;;;;;;5.20;3.50;;;;;;;-144.73;75.90;84756.52;110629;1273;22116;-61
2023/06/08 03:08:58;;;;;;;4.80;3.10;;;;;;;-144.73;75.85;84744.66;110567;1273;22095;-62
2023/06/08 03:11:45;;;;;;;5.90;3.80;;;;;;;-144.73;75.68;84737.94;110618;1273;22187;-64
2023/06/08 03:14:31;;;;;;;8.20;3.90;;;;;;;-144.73;75.50;84743.08;110516;1273;22141;-66
2023/06/08 03:17:19;;;;;;;6.40;4.00;;;;;;;-144.73;75.29;84741.89;110608;1273;22181;-65
2023/06/08 03:20:05;;;;;;;10.30;4.50;;;;;;;-144.73;75.12;84733.19;110595;1273;22150;-68
2023/06/08 03:22:54;;;;;;;6.60;4.00;;;;;;;-144.73;74.82;84725.28;110596;1273;22093;-67
2023/06/08 03:25:40;;;;;;;7.00;4.20;;;;;;;-144.73;74.84;84725.29;110598;1273;22090;-65
2023/06/08 03:28:27;;;;;;;7.10;4.10;;;;;;;-144.73;74.65;84733.19;110615;1273;22168;-59
2023/06/08 03:31:13;;;;;;;7.20;3.80;;;;;;;-144.73;74.56;84733.58;110547;1273;22811;-64
2023/06/08 03:34:04;;;;;;;7.60;4.40;;;;;;;-144.73;74.39;84728.84;110513;1273;22134;-64
2023/06/08 03:36:53;;;;;;;6.20;4.00;;;;;;;-144.73;74.39;84723.30;110523;1273;22129;-67
2023/06/08 03:39:41;;;;;;;6.40;4.20;;;;;;;-144.73;74.10;84717.38;110638;1273;22142;-62
2023/06/08 03:42:27;;;;;;;6.80;4.80;;;;;;;-144.73;73.98;84726.08;110609;1273;22101;-59
2023/06/08 03:45:14;;;;;;;7.50;4.60;;;;;;;-144.73;73.76;84716.59;110586;1273;22108;-65
2023/06/08 03:48:00;;;;;;;9.90;4.90;;;;;;;-144.73;73.96;84717.77;110648;1273;22095;-61
2023/06/08 03:50:47;;;;;;;7.90;4.00;;;;;;;-144.73;73.91;84702.36;110583;1273;22114;-65
2023/06/08 03:53:35;;;;;;;10.40;4.60;;;;;;;-144.73;74.53;84715.80;110612;1273;22786;-63
2023/06/08 03:56:21;;;;;;;7.40;4.50;;;;;;;-144.73;75.42;84703.54;110588;1273;22126;-62
2023/06/08 03:59:08;;;;;;;7.60;4.70;;;;;;;-144.73;75.80;84695.24;110635;1273;22824;-64
2023/06/08 04:01:53;;;;;;;8.90;4.70;;;;;;;-144.73;76.48;84712.23;110617;1273;22833;-65
2023/06/08 04:04:40;;;;;;;11.00;5.10;;;;;;;-144.73;76.92;84708.68;110630;1273;22179;-64
2023/06/08 04:07:26;;;;;;;9.80;5.60;;;;;;;-144.73;77.31;84712.64;110618;1273;22941;-66
2023/06/08 04:10:12;;;;;;;11.20;5.60;;;;;;;-144.73;77.51;84705.52;110576;1273;22891;-66
2023/06/08 04:12:59;;;;;;;7.30;4.60;;;;;;;-144.73;77.42;84719.75;110605;1273;22234;-60
2023/06/08 04:15:46;;;;;;;8.90;5.20;;;;;;;-144.73;77.55;84700.38;110584;1273;22187;-65
2023/06/08 04:18:35;;;;;;;8.80;5.10;;;;;;;-144.73;77.88;84715.80;110612;1260;22126;-70
2023/06/08 04:21:25;;;;;;;8.70;5.40;;;;;;;-144.73;78.06;84718.56;110672;1256;22130;-63
2023/06/08 04:24:13;;;;;;;9.00;5.50;;;;;;;-144.73;78.14;84723.70;110571;1273;22804;-62
2023/06/08 04:26:59;;;;;;;9.40;5.60;;;;;;;-144.73;77.81;84707.49;110608;1273;22166;-58
2023/06/08 04:29:46;;;;;;;8.00;5.40;;;;;;;-144.73;77.16;84690.89;110595;1273;22185;-62
2023/06/08 04:32:32;;;;;;;11.10;5.50;;;;;;;-144.73;77.59;84685.36;110600;1273;22115;-60
2023/06/08 04:35:19;;;;;;;10.40;6.10;;;;;;;-144.73;77.94;84673.11;110574;1273;22130;-63
2023/06/08 04:38:12;;;;;;;7.70;5.10;;;;;;;-144.73;78.11;84660.85;110569;1273;22123;-61
2023/06/08 04:41:01;;;;;;;8.20;5.70;;;;;;;-144.73;77.97;84652.95;110873;1256;22135;-60
2023/06/08 04:43:52;;;;;;;8.60;5.60;;;;;;;-144.73;77.49;84650.57;110567;1273;22144;-67
2023/06/08 04:46:42;;;;;;;8.00;5.30;;;;;;;-144.73;77.18;84643.06;110597;1273;22115;-61
2023/06/08 04:49:31;;;;;;;16.00;7.30;;;;;;;-144.73;76.94;84618.55;110608;1273;22109;-63
2023/06/08 04:52:19;;;;;;;8.40;5.50;;;;;;;-144.73;76.50;84596.02;110619;1273;22438;-60
2023/06/08 04:55:05;;;;;;;9.90;5.00;;;;;;;-144.73;76.17;84592.07;110627;1273;22073;-62
2023/06/08 04:57:51;;;;;;;9.80;5.50;;;;;;;-144.73;75.64;84559.26;110650;1273;22260;-64
2023/06/08 05:00:38;;;;;;;10.00;6.30;;;;;;;-144.73;75.32;84561.23;110592;1272;22061;-69
2023/06/08 05:03:28;;;;;;;8.00;5.40;;;;;;;-144.73;74.88;84552.54;110590;1272;22112;-66
2023/06/08 05:06:14;;;;;;;9.10;5.40;;;;;;;-144.73;74.43;84547.79;110653;1272;22139;-59
2023/06/08 05:09:00;;;;;;;8.20;5.50;;;;;;;-144.73;73.71;84546.21;111056;1256;22178;-58
2023/06/08 05:11:47;;;;;;;10.10;4.90;;;;;;;-144.73;74.14;84543.84;110812;1265;23110;-56
2023/06/08 05:14:33;;;;;;;10.00;5.80;;;;;;;-144.73;74.04;84548.19;110682;1273;22827;-60
2023/06/08 05:17:19;;;;;;;7.70;4.90;;;;;;;-144.73;74.16;84525.66;110592;1273;22162;-64
2023/06/08 05:20:06;;;;;;;8.30;5.40;;;;;;;-144.73;73.86;84517.36;110596;1273;22155;-63
2023/06/08 05:22:53;;;;;;;8.00;5.20;;;;;;;-144.73;73.61;84500.75;110596;1273;22838;-64
2023/06/08 05:25:39;;;;;;;7.70;5.00;;;;;;;-144.73;73.15;84490.48;110595;1273;22285;-66
2023/06/08 05:28:25;;;;;;;8.90;5.60;;;;;;;-144.73;73.22;84479.80;110569;1273;22118;-66
2023/06/08 05:31:11;;;;;;;8.90;5.30;;;;;;;-144.73;73.01;84441.07;110580;1273;22206;-67
2023/06/08 05:33:57;;;;;;;8.70;5.30;;;;;;;-144.73;72.50;84436.72;110574;1273;22113;-67
2023/06/08 05:36:43;;;;;;;8.40;5.10;;;;;;;-144.73;71.72;84413.00;110546;1273;22110;-63
2023/06/08 05:39:29;;;;;;;11.20;5.50;;;;;;;-144.73;71.68;84418.14;110583;1257;22122;-61
2023/06/08 05:42:15;;;;;;;7.80;5.20;;;;;;;-144.73;71.41;84409.05;110601;1273;22769;-66
2023/06/08 05:45:01;;;;;;;8.20;5.70;;;;;;;-144.73;71.29;84428.81;110644;1257;22120;-68
2023/06/08 05:47:48;;;;;;;9.00;5.30;;;;;;;-144.73;71.46;84434.73;110581;1273;22894;-60
2023/06/08 05:50:33;;;;;;;8.70;5.30;;;;;;;-144.73;71.36;84462.02;110538;1273;22136;-62
2023/06/08 05:53:20;;;;;;;9.40;5.50;;;;;;;-144.73;71.75;84453.71;110560;1273;22118;-70
2023/06/08 05:56:05;;;;;;;9.40;6.10;;;;;;;-144.73;71.69;84467.55;110551;1273;22085;-63
2023/06/08 05:58:51;;;;;;;8.50;5.30;;;;;;;-144.73;71.40;84457.27;110540;1273;22747;-67
2023/06/08 06:01:37;;;;;;;7.80;5.60;;;;;;;-144.73;71.07;84456.48;110583;1271;22778;-61
2023/06/08 06:04:23;;;;;;;6.80;5.70;;;;;;;-144.73;71.16;84453.31;110609;1272;22109;-66
2023/06/08 06:07:21;;;;;;;7.30;5.50;;;;;;;-144.73;70.95;84448.58;110638;1272;22383;-64
2023/06/08 06:10:09;;;;;;;12.10;6.20;;;;;;;-144.73;70.77;84424.86;110633;1267;22789;-63
2023/06/08 06:12:55;;;;;;;8.90;6.10;;;;;;;-144.73;70.27;84418.94;110616;1272;22130;-63
2023/06/08 06:15:41;;;;;;;8.60;5.70;;;;;;;-144.73;69.90;84424.86;110558;1273;22142;-63
2023/06/08 06:18:27;;;;;;;8.30;5.80;;;;;;;-144.73;69.98;84421.70;110590;1272;22245;-69
2023/06/08 06:21:14;;;;;;;8.00;6.00;;;;;;;-144.73;69.86;84405.10;110781;1267;22328;-63
2023/06/08 06:23:59;;;;;;;10.10;5.60;;;;;;;-144.73;69.77;84430.79;110622;1260;22777;-66
2023/06/08 06:26:45;;;;;;;9.30;5.40;;;;;;;-144.73;69.92;84428.82;110893;1257;22245;-62
2023/06/08 06:29:32;;;;;;;10.90;7.10;;;;;;;-144.73;70.01;84429.20;110643;1273;22111;-62
2023/06/08 06:32:18;;;;;;;10.20;7.30;;;;;;;-144.73;70.04;84417.75;110619;1273;22898;-63
2023/06/08 06:35:05;;;;;;;10.70;7.80;;;;;;;-144.73;69.92;84409.45;110604;1273;22122;-62
2023/06/08 06:37:53;;;;;;;8.50;6.40;;;;;;;-144.73;69.71;84379.02;110625;1272;22103;-70
2023/06/08 06:40:39;;;;;;;7.80;6.00;;;;;;;-144.73;69.22;84372.29;110605;1272;22099;-65
2023/06/08 06:43:25;;;;;;;14.20;6.90;;;;;;;-144.73;68.74;84365.17;110642;1272;22168;-66
2023/06/08 06:46:20;;;;;;;11.10;5.50;;;;;;;-144.73;68.13;84365.57;110655;1272;22578;-62
2023/06/08 06:49:06;;;;;;;7.60;5.50;;;;;;;-144.73;67.86;84349.75;110612;1272;22076;-59
2023/06/08 06:51:52;;;;;;;11.10;5.30;;;;;;;-144.73;67.61;84340.66;110631;1272;22100;-66
2023/06/08 06:57:32;;;;;;;9.00;4.90;;;;;;;-144.73;67.25;85221.45;103819;1305;545456;-62
2023/06/08 07:00:19;;;;;;;9.20;5.40;;;;;;;-144.73;66.27;84289.28;106202;1286;25240;-62
2023/06/08 07:03:07;;;;;;;9.10;5.30;;;;;;;-144.73;65.98;84276.64;105962;1286;22748;-62
2023/06/08 07:05:57;;;;;;;8.00;5.20;;;;;;;-144.73;65.33;84244.62;105975;1286;22553;-63
2023/06/08 07:08:44;;;;;;;11.30;5.50;;;;;;;-144.73;65.17;84225.64;105930;1286;24263;-62
2023/06/08 07:11:30;;;;;;;7.20;5.00;;;;;;;-144.73;65.01;84217.73;106061;1284;121388;-62
2023/06/08 07:14:16;;;;;;;9.40;5.10;;;;;;;-144.73;64.95;84222.09;106267;1284;24219;-63
2023/06/08 07:17:03;;;;;;;6.40;4.50;;;;;;;-144.73;65.18;84218.52;106257;1275;22487;-63
2023/06/08 07:19:51;;;;;;;6.70;4.70;;;;;;;-144.73;64.96;84234.34;106224;1284;25415;-59
2023/06/08 07:22:37;;;;;;;8.00;4.60;;;;;;;-144.73;64.81;84237.90;106263;1284;24254;-60
2023/06/08 07:25:42;;;;;;;7.00;5.00;;;;;;;-144.73;64.24;84223.67;106319;1285;26505;-62
2023/06/08 07:28:52;;;;;;;10.80;5.40;;;;;;;-144.73;63.87;84239.88;106235;1284;22529;-63
2023/06/08 07:31:39;;;;;;;8.90;4.80;;;;;;;-144.73;64.10;84261.22;106328;1269;23348;-61
2023/06/08 07:34:26;;;;;;;8.10;5.50;;;;;;;-144.73;63.58;84294.81;106248;1284;25236;-61
2023/06/08 07:37:12;;;;;;;7.10;5.50;;;;;;;-144.73;64.14;84306.27;106259;1284;22668;-62
2023/06/08 07:39:58;;;;;;;7.70;4.90;;;;;;;-144.73;64.29;84314.19;106205;1274;25364;-61
2023/06/08 07:42:45;;;;;;;6.50;5.30;;;;;;;-144.73;64.21;84280.59;106130;1284;22534;-62
2023/06/08 07:45:31;;;;;;;9.00;4.90;;;;;;;-144.73;64.30;84290.86;106353;1282;22532;-61
2023/06/08 07:48:18;;;;;;;7.60;4.90;;;;;;;-144.73;64.08;84250.15;106344;1277;24206;-65
2023/06/08 07:51:05;;;;;;;12.30;6.40;;;;;;;-144.73;63.74;84236.71;106599;1272;25358;-62
2023/06/08 07:53:51;;;;;;;8.80;6.10;;;;;;;-144.73;63.35;84218.14;106126;1284;24225;-62
2023/06/08 07:56:39;;;;;;;7.70;6.30;;;;;;;-144.73;63.31;84172.27;106276;1284;25236;-63
2023/06/08 07:59:26;;;;;;;7.80;5.80;;;;;;;-144.73;62.37;84150.94;106243;1284;25352;-62
2023/06/08 08:02:12;;;;;;;11.10;6.70;;;;;;;-144.73;62.01;84152.13;106547;1282;25233;-63
2023/06/08 08:05:00;;;;;;;9.80;5.90;;;;;;;-144.73;61.79;84133.15;106234;1284;25236;-62
2023/06/08 08:07:47;;;;;;;10.50;6.00;;;;;;;-144.73;61.68;84114.98;106325;1285;22663;-62
2023/06/08 08:10:33;;;;;;;9.20;5.80;;;;;;;-144.73;61.03;84110.63;106278;1279;26527;-66
2023/06/08 08:13:20;;;;;;;8.50;6.40;;;;;;;-144.73;60.82;84052.52;106863;1276;22517;-67
2023/06/08 08:16:06;;;;;;;10.10;6.00;;;;;;;-144.73;59.88;84051.73;106805;1276;22527;-70
2023/06/08 08:18:52;;;;;;;10.10;6.20;;;;;;;-144.73;59.83;84058.05;106721;1276;22645;-64
2023/06/08 08:21:38;;;;;;;10.10;5.20;;;;;;;-144.73;59.61;84079.80;106763;1276;22521;-69
2023/06/08 08:24:24;;;;;;;8.40;6.30;;;;;;;-144.73;60.37;84089.67;106670;1276;22791;-64
2023/06/08 08:27:10;;;;;;;9.20;5.70;;;;;;;-144.73;60.25;84069.13;106744;1276;24382;-62
2023/06/08 08:29:56;;;;;;;9.50;5.70;;;;;;;-144.73;59.72;84052.52;106732;1276;22518;-60
2023/06/08 08:32:43;;;;;;;10.30;5.40;;;;;;;-144.73;58.92;84028.41;106758;1276;22516;-67
2023/06/08 08:35:31;;;;;;;8.70;6.20;;;;;;;-144.73;59.07;84033.55;106727;1276;25772;-64
2023/06/08 08:38:18;;;;;;;11.20;5.80;;;;;;;-144.73;58.02;84007.47;106815;1275;24202;-61
2023/06/08 08:41:06;;;;;;;8.60;5.00;;;;;;;-144.73;56.70;83946.59;106935;1269;24223;-61
2023/06/08 08:43:58;;;;;;;7.10;4.30;;;;;;;-144.73;55.35;83846.61;107971;1276;24237;-57
2023/06/08 08:46:48;;;;;;;8.00;4.70;;;;;;;-144.73;53.41;83794.04;106945;1276;22523;-58
2023/06/08 08:49:39;;;;;;;7.60;4.50;;;;;;;-144.73;52.56;83756.10;106799;1275;22523;-65
2023/06/08 08:52:29;;;;;;;6.10;4.40;;;;;;;-144.73;51.54;83754.52;106707;1272;22536;-68
2023/06/08 08:55:16;;;;;;;7.80;4.90;;;;;;;-144.73;50.55;83714.61;106810;1276;24202;-60
2023/06/08 08:58:21;;;;;;;6.90;4.30;;;;;;;-144.73;49.24;83618.57;106758;1276;25230;-63
2023/06/08 09:01:10;;;;;;;7.90;4.50;;;;;;;-144.73;48.62;83592.88;106716;1276;25274;-68
2023/06/08 09:03:57;;;;;;;8.10;4.60;;;;;;;-144.73;47.78;83605.52;106738;1276;22525;-60
2023/06/08 09:06:51;;;;;;;10.00;4.90;;;;;;;-144.73;47.75;83651.77;106792;1275;22526;-63
2023/06/08 09:10:19;;;;;;;6.50;4.40;;;;;;;-144.73;48.42;83671.92;106770;1276;22516;-61
2023/06/08 09:13:06;;;;;;;6.20;4.40;;;;;;;-144.73;48.51;83632.01;106783;1276;22665;-61
2023/06/08 09:15:52;;;;;;;6.80;4.60;;;;;;;-144.73;49.28;83728.05;106839;1276;22518;-58
2023/06/08 09:18:39;;;;;;;6.30;4.60;;;;;;;-144.73;49.26;83750.57;106920;1276;22522;-66
2023/06/08 09:21:26;;;;;;;7.80;5.10;;;;;;;-144.73;48.94;83723.30;106982;1276;25325;-64
2023/06/08 09:24:16;;;;;;;10.40;4.70;;;;;;;-144.73;48.79;83718.56;106951;1276;24228;-62
2023/06/08 09:27:04;;;;;;;7.70;5.00;;;;;;;-144.73;48.97;83743.45;106751;1276;22523;-61
2023/06/08 09:29:50;;;;;;;8.90;5.30;;;;;;;-144.73;49.08;83743.85;107002;1273;22529;-65
2023/06/08 09:32:37;;;;;;;13.40;5.20;;;;;;;-144.73;49.28;83777.05;106984;1273;24371;-63
2023/06/08 09:35:23;;;;;;;11.50;4.70;;;;;;;-144.73;49.74;83849.77;106943;1273;25226;-62
2023/06/08 09:38:18;;;;;;;7.50;4.80;;;;;;;-144.73;50.69;83897.98;107017;1273;22507;-63
2023/06/08 09:41:23;;;;;;;7.90;4.90;;;;;;;-144.73;51.52;83911.03;106966;1266;24215;-61
2023/06/08 09:44:18;;;;;;;8.70;4.80;;;;;;;-144.73;52.05;83923.67;107006;1257;25366;-62
2023/06/08 09:47:21;;;;;;;7.60;5.00;;;;;;;-144.73;51.69;83916.17;106999;1273;22790;-63
2023/06/08 09:50:09;;;;;;;8.80;5.20;;;;;;;-144.73;51.85;83924.46;106967;1273;22746;-63
2023/06/08 09:52:56;;;;;;;7.90;5.00;;;;;;;-144.73;52.03;83924.08;106974;1273;25281;-63
2023/06/08 09:55:43;;;;;;;7.30;4.50;;;;;;;-144.73;52.04;83901.94;110614;1273;22639;-62
2023/06/08 09:58:35;;;;;;;9.20;5.00;;;;;;;-144.73;52.00;83888.50;110611;1273;22096;-65
2023/06/08 10:01:27;;;;;;;10.20;4.50;;;;;;;-144.73;51.83;83884.15;110569;1273;22889;-70
2023/06/08 10:04:36;;;;;;;7.40;4.80;;;;;;;-144.73;50.90;83867.55;110629;1273;22080;-68
2023/06/08 10:07:29;;;;;;;10.50;5.10;;;;;;;-144.73;52.06;83876.25;110611;1273;22226;-71
2023/06/08 10:10:28;;;;;;;8.00;4.70;;;;;;;-144.73;52.03;83874.67;110805;1254;22271;-61
2023/06/08 10:13:15;;;;;;;8.30;5.20;;;;;;;-144.73;51.91;83869.14;110539;1273;22776;-67
2023/06/08 10:16:02;;;;;;;6.70;5.10;;;;;;;-144.73;52.13;83873.09;110616;1257;22216;-67
2023/06/08 10:18:48;;;;;;;8.90;5.40;;;;;;;-144.73;52.68;83863.60;110634;1273;22223;-64
2023/06/08 10:21:36;;;;;;;7.50;4.80;;;;;;;-144.73;52.61;83837.91;110578;1273;22218;-67
2023/06/08 10:24:24;;;;;;;9.80;5.20;;;;;;;-144.73;52.20;83786.93;110612;1273;22233;-68
2023/06/08 10:27:33;;;;;;;9.70;5.60;;;;;;;-144.73;50.82;83750.17;110523;1273;22802;-68
2023/06/08 10:30:30;;;;;;;10.00;5.70;;;;;;;-144.73;50.49;83735.16;110582;1273;22119;-68
2023/06/08 10:33:20;;;;;;;12.90;5.50;;;;;;;-144.73;51.08;83755.31;110540;1273;22123;-63
2023/06/08 10:36:08;;;;;;;9.50;6.40;;;;;;;-144.73;51.33;83741.48;110598;1273;22268;-60
2023/06/08 10:38:55;;;;;;;7.60;5.30;;;;;;;-144.73;51.16;83706.70;110569;1273;22858;-63
2023/06/08 10:41:57;;;;;;;9.00;4.90;;;;;;;-144.73;50.92;83660.46;110556;1273;22104;-63
2023/06/08 10:44:53;;;;;;;9.10;5.20;;;;;;;-144.73;50.20;83622.52;110575;1273;22134;-64
2023/06/08 10:47:39;;;;;;;9.40;5.50;;;;;;;-144.73;49.97;83602.36;110569;1273;22133;-62
2023/06/08 10:50:30;;;;;;;9.60;5.50;;;;;;;-144.73;49.67;83607.51;110572;1273;22129;-60
2023/06/08 10:53:18;;;;;;;8.10;5.70;;;;;;;-144.73;49.28;83623.31;110594;1273;22382;-63
2023/06/08 10:56:04;;;;;;;7.40;5.20;;;;;;;-144.73;50.27;83667.97;110584;1275;23164;-65
2023/06/08 10:58:53;;;;;;;8.40;5.60;;;;;;;-144.73;51.40;83703.14;110552;1274;22106;-64
2023/06/08 11:01:39;;;;;;;8.10;5.10;;;;;;;-144.73;51.38;83696.83;110532;1274;22851;-64
2023/06/08 11:04:28;;;;;;;9.00;5.10;;;;;;;-144.73;51.79;83690.10;110573;1274;22068;-60
2023/06/08 11:07:34;;;;;;;6.80;4.90;;;;;;;-144.73;50.23;83665.99;110582;1274;22119;-67
2023/06/08 11:10:21;;;;;;;7.40;5.30;;;;;;;-144.73;50.16;83694.05;110554;1274;22103;-64
2023/06/08 11:13:10;;;;;;;8.80;4.70;;;;;;;-144.73;50.18;83658.48;110565;1274;22990;-71
2023/06/08 11:15:56;;;;;;;7.80;4.20;;;;;;;-144.73;48.68;83616.59;110597;1274;22185;-66
2023/06/08 11:18:42;;;;;;;6.50;4.30;;;;;;;-144.73;46.50;83615.80;110570;1274;22152;-60
2023/06/08 11:21:29;;;;;;;7.50;4.30;;;;;;;-144.73;46.49;83643.48;110544;1274;22220;-63
2023/06/08 11:24:15;;;;;;;6.70;4.30;;;;;;;-144.73;46.31;83635.95;110551;1274;22298;-66
2023/06/08 11:27:02;;;;;;;9.40;4.30;;;;;;;-144.73;46.07;83651.77;110491;1274;22983;-67
2023/06/08 11:29:50;;;;;;;7.70;4.70;;;;;;;-144.73;46.92;83684.96;110585;1274;22134;-65
2023/06/08 11:32:39;;;;;;;7.50;4.70;;;;;;;-144.73;47.60;83722.91;110537;1274;22160;-62
2023/06/08 11:35:25;;;;;;;8.80;4.20;;;;;;;-144.73;46.93;83717.38;110489;1274;22782;-63
2023/06/08 11:38:11;;;;;;;10.00;4.30;;;;;;;-144.73;45.94;83677.06;110510;1274;22115;-63
2023/06/08 11:40:58;;;;;;;8.10;3.90;;;;;;;-144.73;45.13;83646.63;110553;1274;22136;-63
2023/06/08 11:43:48;;;;;;;11.40;4.50;;;;;;;-144.73;45.06;83614.61;110531;1274;22583;-65
2023/06/08 11:46:35;;;;;;;6.90;3.80;;;;;;;-144.73;44.40;83632.02;110525;1274;22121;-68
2023/06/08 11:49:21;;;;;;;8.80;3.80;;;;;;;-144.73;43.19;83654.92;110517;1274;22109;-63
2023/06/08 11:52:09;;;;;;;9.50;4.30;;;;;;;-144.73;43.50;83689.31;110525;1274;22119;-66
2023/06/08 11:54:56;;;;;;;8.10;4.90;;;;;;;-144.73;44.91;83699.19;110533;1274;22162;-65
2023/06/08 11:57:47;;;;;;;7.30;4.50;;;;;;;-144.73;45.41;83730.02;110487;1274;22116;-64
2023/06/08 12:00:33;;;;;;;7.20;3.90;;;;;;;-144.73;45.25;83732.78;110527;1274;22195;-65
2023/06/08 12:03:20;;;;;;;8.40;4.40;;;;;;;-144.73;46.11;83720.92;110512;1274;22134;-64
2023/06/08 12:06:06;;;;;;;9.00;4.20;;;;;;;-144.73;46.13;83688.92;110507;1274;22217;-63
2023/06/08 12:08:55;;;;;;;9.40;4.40;;;;;;;-144.73;44.59;83665.60;110517;1274;22220;-64
2023/06/08 12:11:41;;;;;;;6.50;4.40;;;;;;;-144.73;45.15;83651.38;110625;1256;22159;-67
2023/06/08 12:14:27;;;;;;;10.90;4.30;;;;;;;-144.73;45.27;83639.52;110662;1256;22122;-66
2023/06/08 12:17:17;;;;;;;7.60;4.80;;;;;;;-144.73;45.20;83633.59;110582;1274;22259;-66
2023/06/08 12:20:04;;;;;;;6.80;4.60;;;;;;;-144.73;44.83;83630.03;110586;1256;22416;-68
2023/06/08 12:22:50;;;;;;;7.80;4.70;;;;;;;-144.73;44.74;83612.24;110592;1269;22354;-66
2023/06/08 12:25:37;;;;;;;8.30;4.30;;;;;;;-144.73;44.61;83619.77;110593;1254;22403;-68
2023/06/08 12:28:25;;;;;;;7.60;4.30;;;;;;;-144.73;44.43;83618.96;110478;1274;22932;-66
2023/06/08 12:31:12;;;;;;;6.10;4.50;;;;;;;-144.73;43.90;83577.86;110502;1274;22215;-67
2023/06/08 12:33:59;;;;;;;6.80;4.00;;;;;;;-144.73;43.13;83500.41;110599;1274;22212;-65
2023/06/08 12:36:45;;;;;;;7.90;4.30;;;;;;;-144.73;43.12;83659.27;110632;1256;22190;-66
2023/06/08 12:39:31;;;;;;;7.20;4.40;;;;;;;-144.73;43.77;83704.73;110531;1274;22168;-65
2023/06/08 12:42:20;;;;;;;10.20;4.50;;;;;;;-144.73;43.74;83683.77;110523;1274;22113;-65
2023/06/08 12:45:06;;;;;;;5.80;3.70;;;;;;;-144.73;43.64;83660.85;110538;1274;22830;-66
2023/06/08 12:47:53;;;;;;;9.20;4.70;;;;;;;-144.73;43.25;83626.48;110480;1274;22201;-65